createdAt,value
2023-04-06T00:01:58.805Z,101206.00
2023-04-06T00:04:27.571Z,101210.00
2023-04-06T00:06:55.411Z,101205.00
2023-04-06T00:09:24.595Z,101210.00
2023-04-06T00:11:52.387Z,101190.00
2023-04-06T00:14:20.337Z,101197.00
2023-04-06T00:16:48.233Z,101188.00
2023-04-06T00:19:18.727Z,101197.00
2023-04-06T00:21:46.627Z,101184.00
2023-04-06T00:24:14.415Z,101193.00
2023-04-06T00:26:43.564Z,101184.00
2023-04-06T00:29:11.426Z,101193.00
2023-04-06T00:31:39.246Z,101190.00
2023-04-06T00:34:08.045Z,101176.00
2023-04-06T00:36:36.011Z,101178.00
2023-04-06T00:39:03.892Z,101189.00
2023-04-06T00:41:32.086Z,101173.00
2023-04-06T00:44:01.280Z,101179.00
2023-04-06T00:46:29.323Z,101176.00
2023-04-06T00:48:57.258Z,101180.00
2023-04-06T00:51:26.294Z,101171.00
2023-04-06T00:53:54.046Z,101171.00
2023-04-06T00:56:22.244Z,101169.00
2023-04-06T00:58:50.145Z,101171.00
2023-04-06T01:01:19.444Z,101165.00
2023-04-06T01:03:49.795Z,101134.00
2023-04-06T01:06:17.840Z,101167.00
2023-04-06T01:08:45.889Z,101162.00
2023-04-06T01:11:13.737Z,101170.00
2023-04-06T01:13:41.572Z,101148.00
2023-04-06T01:16:10.698Z,101151.00
2023-04-06T01:18:40.212Z,101147.00
2023-04-06T01:21:09.637Z,101145.00
2023-04-06T01:23:38.914Z,101149.00
2023-04-06T01:26:06.785Z,101152.00
2023-04-06T01:28:34.583Z,101139.00
2023-04-06T01:31:02.417Z,101149.00
2023-04-06T01:33:30.232Z,101138.00
2023-04-06T01:35:58.080Z,101140.00
2023-04-06T01:38:26.634Z,101140.00
2023-04-06T01:40:56.096Z,101131.00
2023-04-06T01:43:24.039Z,101146.00
2023-04-06T01:45:52.009Z,101138.00
2023-04-06T01:48:19.801Z,101141.00
2023-04-06T01:50:47.622Z,101143.00
2023-04-06T01:53:15.475Z,101141.00
2023-04-06T01:55:43.308Z,101141.00
2023-04-06T01:58:12.571Z,101138.00
2023-04-06T02:00:40.545Z,101145.00
2023-04-06T02:03:08.738Z,101132.00
2023-04-06T02:05:39.102Z,101140.00
2023-04-06T02:08:07.259Z,101134.00
2023-04-06T02:10:35.596Z,101134.00
2023-04-06T02:13:03.543Z,101130.00
2023-04-06T02:15:32.746Z,101128.00
2023-04-06T02:18:01.043Z,101137.00
2023-04-06T02:20:28.896Z,101128.00
2023-04-06T02:23:00.909Z,101128.00
2023-04-06T02:25:28.969Z,101132.00
2023-04-06T02:27:56.880Z,101127.00
2023-04-06T02:30:24.677Z,101124.00
2023-04-06T02:32:53.975Z,101126.00
2023-04-06T02:35:21.861Z,101128.00
2023-04-06T02:37:49.671Z,101113.00
2023-04-06T02:40:17.543Z,101104.00
2023-04-06T02:42:45.348Z,101120.00
2023-04-06T02:45:13.145Z,101115.00
2023-04-06T02:47:41.106Z,101110.00
2023-04-06T02:50:11.362Z,101123.00
2023-04-06T02:52:39.191Z,101109.00
2023-04-06T02:55:08.715Z,101121.00
2023-04-06T02:57:36.795Z,101112.00
2023-04-06T03:00:05.438Z,101113.00
2023-04-06T03:02:33.291Z,101105.00
2023-04-06T03:05:01.359Z,101103.00
2023-04-06T03:07:30.697Z,101113.00
2023-04-06T03:09:58.501Z,101106.00
2023-04-06T03:12:26.280Z,101101.00
2023-04-06T03:14:54.064Z,101112.00
2023-04-06T03:17:22.093Z,101105.00
2023-04-06T03:19:49.944Z,101109.00
2023-04-06T03:22:17.768Z,101096.00
2023-04-06T03:24:46.913Z,101108.00
2023-04-06T03:27:14.718Z,101103.00
2023-04-06T03:29:42.496Z,101109.00
2023-04-06T03:32:11.293Z,101107.00
2023-04-06T03:34:40.044Z,101111.00
2023-04-06T03:37:10.356Z,101110.00
2023-04-06T03:39:38.768Z,101109.00
2023-04-06T03:42:08.118Z,101120.00
2023-04-06T03:44:36.084Z,101103.00
2023-04-06T03:47:04.297Z,101102.00
2023-04-06T03:49:32.101Z,101100.00
2023-04-06T03:51:59.904Z,101105.00
2023-04-06T03:54:27.703Z,101108.00
2023-04-06T03:56:56.053Z,101102.00
2023-04-06T03:59:25.489Z,101114.00
2023-04-06T04:01:53.394Z,101109.00
2023-04-06T04:04:21.427Z,101104.00
2023-04-06T04:06:49.335Z,101106.00
2023-04-06T04:09:17.272Z,101115.00
2023-04-06T04:11:45.034Z,101110.00
2023-04-06T04:14:12.825Z,101115.00
2023-04-06T04:16:42.825Z,101125.00
2023-04-06T04:19:11.114Z,101115.00
2023-04-06T04:21:45.728Z,101106.00
2023-04-06T04:24:14.150Z,101114.00
2023-04-06T04:26:42.482Z,101122.00
2023-04-06T04:29:10.720Z,101116.00
2023-04-06T04:31:38.898Z,101111.00
2023-04-06T04:34:08.789Z,101115.00
2023-04-06T04:36:36.579Z,101105.00
2023-04-06T04:39:04.506Z,101121.00
2023-04-06T04:41:32.407Z,101114.00
2023-04-06T04:44:00.313Z,101117.00
2023-04-06T04:46:28.216Z,101116.00
2023-04-06T04:48:55.996Z,101112.00
2023-04-06T04:51:25.750Z,101113.00
2023-04-06T04:53:53.705Z,101111.00
2023-04-06T04:56:21.553Z,101108.00
2023-04-06T04:58:49.398Z,101102.00
2023-04-06T05:01:17.272Z,101106.00
2023-04-06T05:03:45.343Z,101110.00
2023-04-06T05:06:13.764Z,101114.00
2023-04-06T05:08:43.076Z,101120.00
2023-04-06T05:11:11.073Z,101110.00
2023-04-06T05:13:39.023Z,101113.00
2023-04-06T05:16:07.198Z,101111.00
2023-04-06T05:18:35.108Z,101113.00
2023-04-06T05:21:02.942Z,101111.00
2023-04-06T05:23:30.770Z,101118.00
2023-04-06T05:26:00.168Z,101115.00
2023-04-06T05:28:28.010Z,101111.00
2023-04-06T05:30:55.928Z,101110.00
2023-04-06T05:33:23.806Z,101112.00
2023-04-06T05:35:51.647Z,101108.00
2023-04-06T05:38:19.528Z,101115.00
2023-04-06T05:40:47.334Z,101104.00
2023-04-06T05:43:16.520Z,101107.00
2023-04-06T05:45:46.490Z,101113.00
2023-04-06T05:48:15.198Z,101095.00
2023-04-06T05:50:43.008Z,101109.00
2023-04-06T05:53:10.855Z,101107.00
2023-04-06T05:55:38.649Z,101105.00
2023-04-06T05:58:06.471Z,101107.00
2023-04-06T06:00:35.944Z,101103.00
2023-04-06T06:03:05.254Z,101104.00
2023-04-06T06:05:33.163Z,101101.00
2023-04-06T06:08:03.332Z,101108.00
2023-04-06T06:10:31.314Z,101101.00
2023-04-06T06:12:59.211Z,101100.00
2023-04-06T06:15:27.169Z,101094.00
2023-04-06T06:17:56.347Z,101093.00
2023-04-06T06:20:24.171Z,101109.00
2023-04-06T06:22:52.005Z,101091.00
2023-04-06T06:25:20.011Z,101102.00
2023-04-06T06:27:47.890Z,101101.00
2023-04-06T06:30:16.135Z,101106.00
2023-04-06T06:32:44.160Z,101108.00
2023-04-06T06:35:13.359Z,101119.00
2023-04-06T06:37:41.203Z,101114.00
2023-04-06T06:40:11.259Z,101112.00
2023-04-06T06:42:39.146Z,101117.00
2023-04-06T06:45:09.160Z,101100.00
2023-04-06T06:47:37.058Z,101112.00
2023-04-06T06:50:05.488Z,101113.00
2023-04-06T06:52:34.660Z,101111.00
2023-04-06T06:55:02.743Z,101117.00
2023-04-06T06:57:30.781Z,101117.00
2023-04-06T07:00:00.804Z,101117.00
2023-04-06T07:02:28.706Z,101107.00
2023-04-06T07:04:56.911Z,101107.00
2023-04-06T07:07:24.810Z,101112.00
2023-04-06T07:09:54.039Z,101107.00
2023-04-06T07:12:21.890Z,101103.00
2023-04-06T07:14:49.815Z,101107.00
2023-04-06T07:17:17.656Z,101109.00
2023-04-06T07:19:46.107Z,101100.00
2023-04-06T07:22:14.163Z,101100.00
2023-04-06T07:24:43.208Z,101108.00
2023-04-06T07:27:12.444Z,101099.00
2023-04-06T07:29:40.363Z,101107.00
2023-04-06T07:32:08.237Z,101091.00
2023-04-06T07:34:36.102Z,101102.00
2023-04-06T07:37:04.281Z,101114.00
2023-04-06T07:39:32.201Z,101109.00
2023-04-06T07:42:00.010Z,101095.00
2023-04-06T07:44:29.234Z,101110.00
2023-04-06T07:46:58.398Z,101104.00
2023-04-06T07:49:26.469Z,101102.00
2023-04-06T07:51:54.305Z,101101.00
2023-04-06T07:54:22.155Z,101100.00
2023-04-06T07:56:50.070Z,101094.00
2023-04-06T07:59:17.938Z,101087.00
2023-04-06T08:01:47.100Z,101104.00
2023-04-06T08:04:14.995Z,101086.00
2023-04-06T08:06:42.956Z,101093.00
2023-04-06T08:09:10.816Z,101101.00
2023-04-06T08:11:38.652Z,101089.00
2023-04-06T08:14:06.589Z,101103.00
2023-04-06T08:16:34.650Z,101105.00
2023-04-06T08:19:03.859Z,101095.00
2023-04-06T08:21:31.671Z,101090.00
2023-04-06T08:23:59.917Z,101092.00
2023-04-06T08:26:28.092Z,101088.00
2023-04-06T08:28:56.437Z,101087.00
2023-04-06T08:31:24.329Z,101094.00
2023-04-06T08:33:52.368Z,101090.00
2023-04-06T08:36:24.220Z,101095.00
2023-04-06T08:38:52.273Z,101090.00
2023-04-06T08:41:20.114Z,101105.00
2023-04-06T08:43:51.216Z,101094.00
2023-04-06T08:46:20.102Z,101081.00
2023-04-06T08:48:50.834Z,101077.00
2023-04-06T08:51:21.285Z,101079.00
2023-04-06T08:53:50.855Z,101086.00
2023-04-06T08:56:19.213Z,101071.00
2023-04-06T08:58:47.425Z,101082.00
2023-04-06T09:01:16.651Z,101088.00
2023-04-06T09:03:45.753Z,101079.00
2023-04-06T09:06:15.280Z,101082.00
2023-04-06T09:08:44.889Z,101081.00
2023-04-06T09:11:13.146Z,101081.00
2023-04-06T09:13:48.596Z,101081.00
2023-04-06T09:16:16.960Z,101080.00
2023-04-06T09:18:45.420Z,101065.00
2023-04-06T09:21:13.860Z,101084.00
2023-04-06T09:23:41.798Z,101086.00
2023-04-06T09:26:13.987Z,101079.00
2023-04-06T09:28:50.368Z,101080.00
2023-04-06T09:31:24.769Z,101077.00
2023-04-06T09:33:53.697Z,101078.00
2023-04-06T09:36:21.877Z,101079.00
2023-04-06T09:39:01.082Z,101077.00
2023-04-06T09:41:32.208Z,101079.00
2023-04-06T09:44:07.768Z,101074.00
2023-04-06T09:46:50.766Z,101073.00
2023-04-06T09:49:24.722Z,101069.00
2023-04-06T09:51:57.745Z,101069.00
2023-04-06T09:54:28.214Z,101073.00
2023-04-06T09:57:01.949Z,101060.00
2023-04-06T09:59:40.298Z,101063.00
2023-04-06T10:02:15.576Z,101068.00
2023-04-06T10:04:47.277Z,101064.00
2023-04-06T10:07:16.578Z,101059.00
2023-04-06T10:09:47.568Z,101060.00
2023-04-06T10:12:18.169Z,101059.00
2023-04-06T10:14:46.899Z,101049.00
2023-04-06T10:17:14.680Z,101045.00
2023-04-06T10:20:00.311Z,101042.00
2023-04-06T10:22:35.135Z,101040.00
2023-04-06T10:25:03.476Z,101034.00
2023-04-06T10:27:34.866Z,101038.00
2023-04-06T10:30:05.178Z,101040.00
2023-04-06T10:32:38.227Z,101040.00
2023-04-06T10:35:10.414Z,101035.00
2023-04-06T10:37:53.468Z,101034.00
2023-04-06T10:40:26.756Z,101039.00
2023-04-06T10:42:58.390Z,101041.00
2023-04-06T10:45:28.224Z,101030.00
2023-04-06T10:47:56.869Z,101019.00
2023-04-06T10:50:26.217Z,101032.00
2023-04-06T10:53:04.233Z,101025.00
2023-04-06T10:55:33.214Z,101029.00
2023-04-06T10:58:02.411Z,101027.00
2023-04-06T11:00:43.136Z,101008.00
2023-04-06T11:03:17.845Z,101021.00
2023-04-06T11:05:48.161Z,101021.00
2023-04-06T11:08:24.899Z,101015.00
2023-04-06T11:10:52.818Z,101021.00
2023-04-06T11:13:21.975Z,101026.00
2023-04-06T11:15:50.112Z,101014.00
2023-04-06T11:18:19.876Z,101015.00
2023-04-06T11:20:50.086Z,101002.00
2023-04-06T11:23:24.800Z,101018.00
2023-04-06T11:25:54.086Z,101010.00
2023-04-06T11:28:23.511Z,101010.00
2023-04-06T11:30:51.440Z,101021.00
2023-04-06T11:33:24.206Z,101019.00
2023-04-06T11:35:52.166Z,101034.00
2023-04-06T11:38:21.890Z,101017.00
2023-04-06T11:40:54.891Z,101010.00
2023-04-06T11:43:30.214Z,101034.00
2023-04-06T11:46:04.824Z,101023.00
2023-04-06T11:48:33.334Z,101015.00
2023-04-06T11:51:02.058Z,101010.00
2023-04-06T11:53:30.636Z,101004.00
2023-04-06T11:55:58.845Z,101013.00
2023-04-06T11:58:27.643Z,101009.00
2023-04-06T12:01:05.670Z,100998.00
2023-04-06T12:03:33.575Z,101005.00
2023-04-06T12:06:02.231Z,101008.00
2023-04-06T12:08:30.022Z,100998.00
2023-04-06T12:10:57.835Z,100997.00
2023-04-06T12:13:25.988Z,100986.00
2023-04-06T12:15:53.829Z,100993.00
2023-04-06T12:18:22.983Z,100997.00
2023-04-06T12:20:51.254Z,100986.00
2023-04-06T12:23:19.056Z,101013.00
2023-04-06T12:25:46.978Z,100994.00
2023-04-06T12:28:14.961Z,100997.00
2023-04-06T12:30:42.972Z,100991.00
2023-04-06T12:33:10.886Z,100988.00
2023-04-06T12:35:41.215Z,100984.00
2023-04-06T12:38:09.025Z,100999.00
2023-04-06T12:40:39.277Z,100994.00
2023-04-06T12:43:07.271Z,100982.00
2023-04-06T12:45:35.124Z,100988.00
2023-04-06T12:48:03.020Z,100978.00
2023-04-06T12:50:31.164Z,100979.00
2023-04-06T12:53:00.440Z,100981.00
2023-04-06T12:55:31.245Z,100974.00
2023-04-06T12:57:59.046Z,100976.00
2023-04-06T13:00:27.235Z,100973.00
2023-04-06T13:02:55.285Z,100967.00
2023-04-06T13:05:23.163Z,100957.00
2023-04-06T13:07:50.993Z,100963.00
2023-04-06T13:10:20.191Z,100958.00
2023-04-06T13:12:48.017Z,100961.00
2023-04-06T13:15:16.246Z,100949.00
2023-04-06T13:17:44.087Z,100957.00
2023-04-06T13:20:12.229Z,100949.00
2023-04-06T13:22:40.483Z,100950.00
2023-04-06T13:25:08.850Z,100952.00
2023-04-06T13:27:38.077Z,100949.00
2023-04-06T13:30:07.307Z,100947.00
2023-04-06T13:32:35.708Z,100946.00
2023-04-06T13:35:04.800Z,100944.00
2023-04-06T13:37:32.779Z,100929.00
2023-04-06T13:40:00.761Z,100918.00
2023-04-06T13:42:29.385Z,100921.00
2023-04-06T13:44:58.816Z,100931.00
2023-04-06T13:47:27.849Z,100920.00
2023-04-06T13:49:56.176Z,100930.00
2023-04-06T13:52:24.071Z,100920.00
2023-04-06T13:54:53.238Z,100920.00
2023-04-06T13:57:20.970Z,100919.00
2023-04-06T13:59:50.578Z,100916.00
2023-04-06T14:02:20.742Z,100910.00
2023-04-06T14:04:48.657Z,100918.00
2023-04-06T14:07:16.368Z,100908.00
2023-04-06T14:09:44.031Z,100912.00
2023-04-06T14:12:12.739Z,100910.00
2023-04-06T14:14:40.457Z,100912.00
2023-04-06T14:17:08.254Z,100903.00
2023-04-06T14:19:37.438Z,100908.00
2023-04-06T14:22:05.581Z,100901.00
2023-04-06T14:24:33.494Z,100904.00
2023-04-06T14:27:02.084Z,100904.00
2023-04-06T14:29:29.778Z,100884.00
2023-04-06T14:32:01.502Z,100887.00
2023-04-06T14:34:29.259Z,100899.00
2023-04-06T14:36:58.360Z,100898.00
2023-04-06T14:39:26.079Z,100893.00
2023-04-06T14:41:53.779Z,100893.00
2023-04-06T14:44:21.781Z,100887.00
2023-04-06T14:46:49.614Z,100889.00
2023-04-06T14:49:17.580Z,100885.00
2023-04-06T14:51:45.310Z,100884.00
2023-04-06T14:54:14.363Z,100879.00
2023-04-06T14:56:42.982Z,100888.00
2023-04-06T14:59:10.891Z,100879.00
2023-04-06T15:01:39.309Z,100886.00
2023-04-06T15:04:07.853Z,100871.00
2023-04-06T15:06:35.777Z,100874.00
2023-04-06T15:09:04.135Z,100870.00
2023-04-06T15:11:35.896Z,100858.00
2023-04-06T15:14:04.081Z,100877.00
2023-04-06T15:16:33.366Z,100876.00
2023-04-06T15:19:03.021Z,100878.00
2023-04-06T15:21:31.129Z,100871.00
2023-04-06T15:23:59.011Z,100870.00
2023-04-06T15:26:27.335Z,100877.00
2023-04-06T15:28:56.401Z,100869.00
2023-04-06T15:31:36.521Z,100872.00
2023-04-06T15:34:05.290Z,100869.00
2023-04-06T15:36:33.152Z,100866.00
2023-04-06T15:39:01.051Z,100861.00
2023-04-06T15:41:29.286Z,100852.00
2023-04-06T15:43:58.353Z,100854.00
2023-04-06T15:46:28.067Z,100851.00
2023-04-06T15:48:56.670Z,100852.00
2023-04-06T15:51:24.942Z,100846.00
2023-04-06T15:53:52.656Z,100850.00
2023-04-06T15:56:20.940Z,100848.00
2023-04-06T15:58:49.431Z,100852.00
2023-04-06T16:01:20.357Z,100839.00
2023-04-06T16:03:48.321Z,100852.00
2023-04-06T16:06:16.289Z,100858.00
2023-04-06T16:08:44.422Z,100858.00
2023-04-06T16:11:12.702Z,100859.00
2023-04-06T16:13:45.112Z,100849.00
2023-04-06T16:16:15.885Z,100853.00
2023-04-06T16:18:44.980Z,100849.00
2023-04-06T16:21:19.412Z,100838.00
2023-04-06T16:23:48.343Z,100844.00
2023-04-06T16:26:17.865Z,100848.00
2023-04-06T16:28:47.749Z,100852.00
2023-04-06T16:31:20.091Z,100848.00
2023-04-06T16:33:49.495Z,100855.00
2023-04-06T16:36:23.488Z,100850.00
2023-04-06T16:38:51.326Z,100850.00
2023-04-06T16:41:19.043Z,100844.00
2023-04-06T16:43:47.672Z,100843.00
2023-04-06T16:46:15.837Z,100838.00
2023-04-06T16:48:44.243Z,100858.00
2023-04-06T16:51:13.357Z,100844.00
2023-04-06T16:53:41.555Z,100838.00
2023-04-06T16:58:38.198Z,100838.00
2023-04-06T17:01:06.296Z,100837.00
2023-04-06T17:03:35.339Z,100828.00
2023-04-06T17:06:03.112Z,100837.00
2023-04-06T17:08:32.129Z,100836.00
2023-04-06T17:11:03.993Z,100845.00
2023-04-06T17:13:32.763Z,100845.00
2023-04-06T17:16:00.795Z,100846.00
2023-04-06T17:18:30.025Z,100838.00
2023-04-06T17:20:58.419Z,100833.00
2023-04-06T17:23:26.684Z,100843.00
2023-04-06T17:25:57.841Z,100839.00
2023-04-06T17:28:25.783Z,100846.00
2023-04-06T17:30:53.706Z,100843.00
2023-04-06T17:33:22.176Z,100848.00
2023-04-06T17:35:49.927Z,100843.00
2023-04-06T17:38:17.771Z,100843.00
2023-04-06T17:40:45.462Z,100850.00
2023-04-06T17:43:14.774Z,100851.00
2023-04-06T17:45:42.466Z,100849.00
2023-04-06T17:48:10.152Z,100852.00
2023-04-06T17:50:38.951Z,100858.00
2023-04-06T17:53:06.888Z,100856.00
2023-04-06T17:55:36.277Z,100864.00
2023-04-06T17:58:04.544Z,100857.00
2023-04-06T18:00:33.795Z,100860.00
2023-04-06T18:03:02.244Z,100860.00
2023-04-06T18:05:30.160Z,100857.00
2023-04-06T18:07:58.492Z,100853.00
2023-04-06T18:10:26.337Z,100864.00
2023-04-06T18:12:54.159Z,100849.00
2023-04-06T18:15:21.910Z,100868.00
2023-04-06T18:17:51.432Z,100866.00
2023-04-06T18:20:19.359Z,100865.00
2023-04-06T18:22:47.081Z,100872.00
2023-04-06T18:25:14.866Z,100881.00
2023-04-06T18:27:42.667Z,100887.00
2023-04-06T18:30:13.094Z,100872.00
2023-04-06T18:32:41.268Z,100884.00
2023-04-06T18:35:11.510Z,100881.00
2023-04-06T18:37:39.237Z,100872.00
2023-04-06T18:40:08.180Z,100880.00
2023-04-06T18:42:36.396Z,100882.00
2023-04-06T18:45:04.284Z,100886.00
2023-04-06T18:47:31.959Z,100885.00
2023-04-06T18:49:59.666Z,100877.00
2023-04-06T18:52:28.715Z,100884.00
2023-04-06T18:54:56.841Z,100889.00
2023-04-06T18:57:24.603Z,100897.00
2023-04-06T18:59:52.479Z,100883.00
2023-04-06T19:02:20.413Z,100896.00
2023-04-06T19:04:48.560Z,100893.00
2023-04-06T19:07:16.723Z,100897.00
2023-04-06T19:09:45.814Z,100893.00
2023-04-06T19:12:13.528Z,100898.00
2023-04-06T19:14:41.296Z,100903.00
2023-04-06T19:17:08.992Z,100903.00
2023-04-06T19:19:37.736Z,100900.00
2023-04-06T19:22:05.417Z,100909.00
2023-04-06T19:24:33.194Z,100900.00
2023-04-06T19:27:02.622Z,100902.00
2023-04-06T19:29:30.385Z,100903.00
2023-04-06T19:32:00.268Z,100906.00
2023-04-06T19:34:28.573Z,100915.00
2023-04-06T19:36:56.361Z,100904.00
2023-04-06T19:39:24.281Z,100904.00
2023-04-06T19:41:52.060Z,100908.00
2023-04-06T19:44:21.208Z,100913.00
2023-04-06T19:46:50.488Z,100911.00
2023-04-06T19:49:18.215Z,100918.00
2023-04-06T19:51:45.987Z,100906.00
2023-04-06T19:54:13.716Z,100906.00
2023-04-06T19:56:41.462Z,100910.00
2023-04-06T19:59:10.925Z,100910.00
2023-04-06T20:01:40.275Z,100914.00
2023-04-06T20:04:08.464Z,100903.00
2023-04-06T20:06:36.343Z,100910.00
2023-04-06T20:09:04.113Z,100906.00
2023-04-06T20:11:33.573Z,100897.00
2023-04-06T20:14:01.357Z,100897.00
2023-04-06T20:16:29.084Z,100914.00
2023-04-06T20:18:58.162Z,100913.00
2023-04-06T20:21:26.152Z,100907.00
2023-04-06T20:23:53.926Z,100919.00
2023-04-06T20:26:22.414Z,100907.00
2023-04-06T20:28:50.201Z,100902.00
2023-04-06T20:31:17.953Z,100915.00
2023-04-06T20:33:45.794Z,100915.00
2023-04-06T20:36:14.906Z,100900.00
2023-04-06T20:38:42.583Z,100902.00
2023-04-06T20:41:10.247Z,100906.00
2023-04-06T20:43:38.048Z,100903.00
2023-04-06T20:46:07.400Z,100904.00
2023-04-06T20:48:36.349Z,100905.00
2023-04-06T20:51:04.546Z,100902.00
2023-04-06T20:53:33.793Z,100892.00
2023-04-06T20:56:02.923Z,100905.00
2023-04-06T20:58:30.905Z,100902.00
2023-04-06T21:00:58.636Z,100906.00
2023-04-06T21:03:26.672Z,100914.00
2023-04-06T21:05:57.266Z,100897.00
2023-04-06T21:08:25.026Z,100895.00
2023-04-06T21:10:54.083Z,100900.00
2023-04-06T21:13:21.761Z,100896.00
2023-04-06T21:15:51.632Z,100898.00
2023-04-06T21:18:19.628Z,100895.00
2023-04-06T21:20:47.468Z,100890.00
2023-04-06T21:23:15.359Z,100898.00
2023-04-06T21:25:43.045Z,100888.00
2023-04-06T21:28:12.164Z,100891.00
2023-04-06T21:30:39.989Z,100886.00
2023-04-06T21:33:08.136Z,100882.00
2023-04-06T21:35:39.568Z,100873.00
2023-04-06T21:38:07.346Z,100873.00
2023-04-06T21:40:35.217Z,100880.00
2023-04-06T21:43:02.933Z,100880.00
2023-04-06T21:45:32.951Z,100882.00
2023-04-06T21:48:00.865Z,100879.00
2023-04-06T21:50:28.791Z,100871.00
2023-04-06T21:52:56.533Z,100882.00
2023-04-06T21:55:24.284Z,100879.00
2023-04-06T21:57:52.034Z,100878.00
2023-04-06T22:00:20.588Z,100870.00
2023-04-06T22:02:49.742Z,100881.00
2023-04-06T22:05:17.750Z,100875.00
2023-04-06T22:07:46.268Z,100873.00
2023-04-06T22:10:13.963Z,100879.00
2023-04-06T22:12:41.823Z,100858.00
2023-04-06T22:15:11.696Z,100873.00
2023-04-06T22:17:39.495Z,100885.00
2023-04-06T22:20:09.122Z,100877.00
2023-04-06T22:22:36.847Z,100878.00
2023-04-06T22:25:04.876Z,100884.00
2023-04-06T22:27:33.302Z,100880.00
2023-04-06T22:30:01.034Z,100879.00
2023-04-06T22:32:28.883Z,100876.00
2023-04-06T22:34:56.666Z,100883.00
2023-04-06T22:37:25.789Z,100877.00
2023-04-06T22:39:53.515Z,100880.00
2023-04-06T22:42:21.240Z,100885.00
2023-04-06T22:44:48.920Z,100876.00
2023-04-06T22:47:16.848Z,100870.00
2023-04-06T22:49:44.606Z,100868.00
2023-04-06T22:52:12.297Z,100872.00
2023-04-06T22:54:41.865Z,100875.00
2023-04-06T22:57:09.669Z,100878.00
2023-04-06T22:59:37.347Z,100880.00
2023-04-06T23:02:05.118Z,100889.00
2023-04-06T23:04:32.877Z,100890.00
2023-04-06T23:07:00.700Z,100871.00
2023-04-06T23:09:28.459Z,100882.00
2023-04-06T23:11:57.604Z,100877.00
2023-04-06T23:14:25.303Z,100883.00
2023-04-06T23:16:53.130Z,100885.00
2023-04-06T23:19:20.901Z,100891.00
2023-04-06T23:21:48.593Z,100890.00
2023-04-06T23:24:16.573Z,100893.00
2023-04-06T23:26:44.279Z,100893.00
2023-04-06T23:29:13.349Z,100887.00
2023-04-06T23:31:41.339Z,100891.00
2023-04-06T23:34:09.054Z,100893.00
2023-04-06T23:36:36.893Z,100889.00
2023-04-06T23:39:04.707Z,100864.00
2023-04-06T23:41:32.436Z,100895.00
2023-04-06T23:44:00.218Z,100893.00
2023-04-06T23:46:29.430Z,100890.00
2023-04-06T23:48:57.182Z,100893.00
2023-04-06T23:51:24.874Z,100898.00
2023-04-06T23:53:52.570Z,100898.00
2023-04-06T23:56:20.340Z,100890.00
2023-04-06T23:58:48.104Z,100903.00
